Time;durP1;ratioP1;P1;durP2;ratioP2;P2;SDS_P1;SDS_P2;PMS_P1;PMS_P2;Temp;Humidity;BMP_temperature;BMP_pressure;BME280_temperature;BME280_humidity;BME280_pressure;Samples;Min_cycle;Max_cycle;Signal;HPM_P1;HPM_P2
2022/10/04 00:00:26;;;;;;;11.70;7.23;;;;;;;12.01;60.67;99542.91;7006696;28;20229;-80
2022/10/04 00:03:52;;;;;;;7.97;5.93;;;;;;;12.26;60.28;99531.47;7006845;28;20224;-80
2022/10/04 00:07:18;;;;;;;13.60;6.63;;;;;;;11.89;60.85;99530.97;7007742;28;20258;-82
2022/10/04 00:10:40;;;;;;;10.30;6.17;;;;;;;11.88;60.46;99538.25;7006184;28;20588;-82
2022/10/04 00:14:06;;;;;;;8.70;6.20;;;;;;;11.78;61.13;99532.34;7008012;28;20194;-80
2022/10/04 00:17:30;;;;;;;7.23;6.17;;;;;;;11.96;60.50;99530.00;7007227;28;20268;-82
2022/10/04 00:21:14;;;;;;;11.73;6.20;;;;;;;11.99;60.21;99531.47;7007404;28;20239;-83
2022/10/04 00:24:36;;;;;;;7.53;5.90;;;;;;;11.93;59.59;99532.25;7000876;28;20272;-82
2022/10/04 00:28:28;;;;;;;8.10;5.90;;;;;;;11.94;60.04;99515.00;7006499;28;20250;-82
2022/10/04 00:32:23;;;;;;;7.13;6.23;;;;;;;11.77;59.80;99524.44;7007469;28;20201;-82
2022/10/04 00:35:50;;;;;;;7.67;6.00;;;;;;;11.76;60.83;99520.06;6999833;28;20224;-82
2022/10/04 00:39:39;;;;;;;11.03;6.27;;;;;;;11.94;60.18;99515.88;6988466;28;20228;-82
2022/10/04 00:43:02;;;;;;;9.10;6.07;;;;;;;11.51;61.08;99510.69;6980321;28;20229;-84
2022/10/04 00:46:27;;;;;;;9.80;6.00;;;;;;;11.53;61.23;99503.22;6981631;28;20684;-84
2022/10/04 00:49:54;;;;;;;6.00;5.40;;;;;;;11.54;60.63;99494.91;6981164;28;20372;-84
2022/10/04 00:53:35;;;;;;;6.87;5.70;;;;;;;11.34;60.96;99501.97;6981242;28;20248;-84
2022/10/04 00:57:02;;;;;;;9.93;5.70;;;;;;;11.49;61.51;99512.72;6981665;28;20304;-84
2022/10/04 01:00:24;;;;;;;6.60;5.90;;;;;;;11.52;60.84;99509.66;6981077;28;20722;-84
2022/10/04 01:03:46;;;;;;;7.30;5.30;;;;;;;11.82;60.69;99512.03;6985228;28;20314;-84
2022/10/04 01:07:09;;;;;;;6.37;5.50;;;;;;;11.88;59.22;99505.00;7002850;28;20201;-84
2022/10/04 01:10:32;;;;;;;10.47;5.87;;;;;;;11.15;59.99;99486.44;7007229;28;20374;-84
2022/10/04 01:13:58;;;;;;;10.73;6.03;;;;;;;11.23;61.67;99507.06;7007406;28;20318;-84
2022/10/04 01:17:20;;;;;;;7.37;6.13;;;;;;;11.61;61.19;99481.47;7007120;28;20241;-83
2022/10/04 01:20:50;;;;;;;10.20;5.60;;;;;;;11.85;59.58;99481.06;7006261;28;20696;-84
2022/10/04 01:24:22;;;;;;;6.60;5.53;;;;;;;11.49;59.24;99488.41;7006654;28;20712;-84
2022/10/04 01:27:44;;;;;;;7.60;5.87;;;;;;;11.42;59.85;99455.97;7005788;28;20315;-84
2022/10/04 01:31:05;;;;;;;6.47;5.40;;;;;;;11.29;60.81;99490.09;7006649;28;20575;-84
2022/10/04 01:34:29;;;;;;;6.37;5.73;;;;;;;11.22;60.44;99491.91;7006137;28;20235;-84
2022/10/04 01:37:51;;;;;;;7.50;5.77;;;;;;;10.63;60.74;99399.53;7005432;28;20233;-84
2022/10/04 01:41:16;;;;;;;8.23;5.93;;;;;;;11.17;60.15;99430.38;7007129;28;20291;-83
2022/10/04 01:44:39;;;;;;;8.17;5.80;;;;;;;11.44;60.38;99485.44;7007553;28;20548;-84
2022/10/04 01:48:03;;;;;;;6.53;5.23;;;;;;;11.87;59.45;99482.53;7006226;28;20315;-84
2022/10/04 01:51:26;;;;;;;6.50;5.27;;;;;;;11.57;59.04;99455.88;7007174;28;20253;-84
2022/10/04 01:54:50;;;;;;;6.83;5.43;;;;;;;11.27;59.31;99471.41;7006844;28;20788;-84
2022/10/04 01:58:15;;;;;;;8.03;5.33;;;;;;;11.16;59.78;99471.09;7006783;28;20252;-84
2022/10/04 02:01:40;;;;;;;10.40;5.30;;;;;;;11.28;60.17;99454.16;7007644;28;20221;-84
2022/10/04 02:05:03;;;;;;;9.20;6.20;;;;;;;11.42;59.62;99433.53;7006775;28;20290;-83
2022/10/04 02:08:27;;;;;;;6.63;4.83;;;;;;;11.23;59.80;99429.59;7019388;28;20271;-84
2022/10/04 02:11:51;;;;;;;7.07;5.13;;;;;;;11.37;59.12;99453.00;7007783;28;20271;-84
2022/10/04 02:15:15;;;;;;;5.60;5.07;;;;;;;11.44;59.75;99447.66;7012232;28;20188;-84
2022/10/04 02:18:38;;;;;;;7.07;5.30;;;;;;;11.14;59.31;99397.56;7013808;28;20289;-84
2022/10/04 02:22:01;;;;;;;8.93;5.00;;;;;;;10.96;60.40;99443.06;7006000;28;20208;-84
2022/10/04 02:25:25;;;;;;;5.93;5.20;;;;;;;10.74;61.22;99400.94;7006210;28;20267;-83
2022/10/04 02:28:48;;;;;;;7.63;5.23;;;;;;;10.98;61.13;99422.94;7005359;28;20288;-84
2022/10/04 02:35:53;;;;;;;8.80;5.20;;;;;;;10.94;61.23;99424.38;7006036;28;20702;-84
2022/10/04 02:39:16;;;;;;;7.27;5.27;;;;;;;11.02;61.05;99429.63;6996466;28;20271;-84
2022/10/04 02:42:40;;;;;;;6.37;4.50;;;;;;;11.02;60.66;99434.19;6978069;28;20747;-83
2022/10/04 02:46:06;;;;;;;7.67;5.33;;;;;;;10.93;61.02;99409.19;6978580;28;20706;-84
2022/10/04 02:49:33;;;;;;;7.93;5.30;;;;;;;11.03;61.03;99433.19;6978089;28;20721;-84
2022/10/04 02:52:57;;;;;;;8.27;5.13;;;;;;;10.91;60.64;99432.00;6978133;28;20276;-84
2022/10/04 02:56:19;;;;;;;7.97;5.40;;;;;;;10.79;61.14;99430.81;6976876;28;20225;-84
2022/10/04 02:59:40;;;;;;;9.77;5.47;;;;;;;11.04;60.48;99427.56;6976944;28;20365;-83
2022/10/04 03:03:22;;;;;;;9.57;6.00;;;;;;;10.96;60.45;99413.38;6981925;28;20220;-84
2022/10/04 03:06:45;;;;;;;5.13;4.63;;;;;;;11.11;60.26;99435.75;7004779;28;20197;-84
2022/10/04 03:10:10;;;;;;;7.70;5.77;;;;;;;10.97;60.30;99432.06;7003673;28;20236;-84
2022/10/04 03:13:33;;;;;;;10.37;5.80;;;;;;;10.95;60.45;99427.91;7005541;28;20210;-85
2022/10/04 03:16:56;;;;;;;6.40;5.10;;;;;;;10.95;58.96;99403.59;7004561;28;20225;-85
2022/10/04 03:20:20;;;;;;;6.17;4.77;;;;;;;10.62;60.30;99421.34;7004396;28;20226;-84
2022/10/04 03:23:43;;;;;;;7.50;4.70;;;;;;;10.86;60.00;99421.78;7005956;28;20210;-84
2022/10/04 03:27:07;;;;;;;6.47;4.90;;;;;;;10.92;58.93;99420.19;7006180;28;20259;-85
2022/10/04 03:30:28;;;;;;;6.27;4.63;;;;;;;10.81;59.16;99405.34;7005993;28;20312;-84
2022/10/04 03:33:50;;;;;;;6.67;5.10;;;;;;;10.74;59.99;99400.94;7008629;28;20293;-84
2022/10/04 03:37:15;;;;;;;7.13;5.47;;;;;;;10.68;60.43;99399.81;7008090;28;20370;-84
2022/10/04 03:40:41;;;;;;;9.57;5.60;;;;;;;10.80;59.98;99397.47;7009240;28;20237;-86
2022/10/04 03:44:03;;;;;;;8.03;5.20;;;;;;;10.66;60.10;99399.19;7009787;28;20921;-86
2022/10/04 03:47:27;;;;;;;7.13;5.20;;;;;;;10.50;61.23;99393.19;7008674;28;20221;-86
2022/10/04 03:50:49;;;;;;;7.53;5.13;;;;;;;10.79;60.46;99410.09;7009423;28;20741;-85
2022/10/04 03:54:14;;;;;;;9.40;5.80;;;;;;;10.61;60.64;99401.59;7029563;28;20201;-85
2022/10/04 03:57:38;;;;;;;7.67;5.73;;;;;;;10.53;60.72;99382.88;7008207;28;20371;-86
2022/10/04 04:01:10;;;;;;;6.80;5.50;;;;;;;10.92;59.97;99410.22;7012454;28;20277;-85
2022/10/04 04:04:40;;;;;;;9.97;6.00;;;;;;;10.57;60.77;99421.06;7006296;28;20298;-85
2022/10/04 04:08:07;;;;;;;6.97;5.23;;;;;;;10.49;61.40;99426.53;7006414;28;20229;-85
2022/10/04 04:11:29;;;;;;;9.53;5.40;;;;;;;10.75;61.07;99427.69;7004277;28;20680;-83
2022/10/04 04:14:53;;;;;;;10.17;5.10;;;;;;;10.99;59.38;99415.69;7003065;28;20203;-83
2022/10/04 04:18:17;;;;;;;5.40;4.70;;;;;;;10.74;59.52;99390.13;7001947;28;20334;-83
2022/10/04 04:21:38;;;;;;;5.17;4.47;;;;;;;10.53;59.39;99393.66;7002760;28;20207;-83
2022/10/04 04:25:01;;;;;;;6.60;4.80;;;;;;;11.06;58.45;99403.94;7003970;28;20331;-83
2022/10/04 04:28:26;;;;;;;5.13;4.63;;;;;;;10.96;58.53;99379.16;7002876;28;20319;-83
2022/10/04 04:31:52;;;;;;;7.13;4.73;;;;;;;10.52;59.24;99396.53;7005380;28;20202;-83
2022/10/04 04:35:23;;;;;;;6.40;4.83;;;;;;;10.34;61.29;99390.72;7009186;28;20289;-84
2022/10/04 04:42:22;;;;;;;7.17;5.47;;;;;;;10.30;61.48;99392.13;6988749;28;20219;-84
2022/10/04 04:45:44;;;;;;;5.90;5.27;;;;;;;10.61;60.83;99400.75;7011332;28;20335;-83
2022/10/04 04:49:07;;;;;;;10.23;5.90;;;;;;;10.94;60.34;99391.16;7008790;28;20351;-82
2022/10/04 04:52:30;;;;;;;6.60;5.90;;;;;;;10.64;60.94;99409.31;7011650;28;20342;-83
2022/10/04 04:55:55;;;;;;;7.40;5.13;;;;;;;10.49;61.09;99399.59;7009237;28;20201;-83
2022/10/04 04:59:17;;;;;;;8.37;5.47;;;;;;;10.75;60.41;99413.38;7008975;28;20250;-85
2022/10/04 05:02:50;;;;;;;7.57;5.90;;;;;;;10.98;59.44;99401.38;7009584;28;20283;-85
2022/10/04 05:06:24;;;;;;;5.83;5.00;;;;;;;10.97;60.24;99401.53;7011268;28;20200;-82
2022/10/04 05:09:46;;;;;;;6.57;5.07;;;;;;;10.89;59.80;99399.84;7011167;28;20229;-83
2022/10/04 05:13:09;;;;;;;5.43;4.93;;;;;;;10.20;59.87;99330.44;7014724;28;20247;-82
2022/10/04 05:16:36;;;;;;;5.77;4.63;;;;;;;10.40;60.92;99415.03;7013451;28;20225;-82
2022/10/04 05:20:02;;;;;;;9.33;5.60;;;;;;;10.33;60.53;99416.00;7012691;28;20598;-83
2022/10/04 05:23:25;;;;;;;6.63;5.00;;;;;;;10.34;60.74;99413.09;7012817;28;20211;-83
2022/10/04 05:26:50;;;;;;;11.93;5.30;;;;;;;9.82;61.46;99361.22;7012825;28;20215;-81
2022/10/04 05:30:16;;;;;;;9.50;5.53;;;;;;;9.93;62.21;99419.97;7009979;28;20228;-84
2022/10/04 05:33:40;;;;;;;9.37;5.57;;;;;;;10.25;62.12;99449.28;7013353;28;20241;-84
2022/10/04 05:37:24;;;;;;;6.47;5.30;;;;;;;10.44;61.82;99446.00;7012270;28;20224;-84
2022/10/04 05:40:52;;;;;;;8.90;5.47;;;;;;;10.98;61.60;99438.31;6985403;28;20295;-85
2022/10/04 05:44:25;;;;;;;8.07;5.10;;;;;;;10.70;60.78;99440.91;7009947;28;20205;-81
2022/10/04 05:47:49;;;;;;;8.27;4.80;;;;;;;10.56;60.13;99443.66;6979414;28;20217;-84
2022/10/04 05:51:18;;;;;;;10.00;5.10;;;;;;;10.90;60.05;99433.03;7013931;28;20208;-84
2022/10/04 05:54:40;;;;;;;9.77;4.93;;;;;;;10.69;61.28;99411.44;7020844;28;20687;-84
2022/10/04 05:58:18;;;;;;;6.47;5.27;;;;;;;10.98;61.01;99433.75;7009711;28;20231;-83
2022/10/04 06:01:45;;;;;;;7.60;4.77;;;;;;;11.27;59.82;99432.78;7006327;28;20646;-83
2022/10/04 06:05:14;;;;;;;11.83;5.70;;;;;;;11.42;59.15;99420.88;7006329;28;20756;-82
2022/10/04 06:08:43;;;;;;;7.37;4.93;;;;;;;11.48;59.05;99408.44;6990056;28;20266;-84
2022/10/04 06:12:09;;;;;;;10.90;4.53;;;;;;;11.43;58.80;99421.69;7006902;28;20220;-83
2022/10/04 06:15:52;;;;;;;8.50;4.63;;;;;;;11.05;58.89;99413.03;7009911;28;20216;-81
2022/10/04 06:19:31;;;;;;;6.17;5.30;;;;;;;11.47;59.81;99434.63;7003902;28;20228;-82
2022/10/04 06:22:57;;;;;;;8.53;6.57;;;;;;;11.55;59.30;99395.81;6978850;28;20356;-83
2022/10/04 06:26:23;;;;;;;6.87;4.60;;;;;;;11.17;58.76;99411.50;6977390;28;20323;-81
2022/10/04 06:29:51;;;;;;;8.07;5.50;;;;;;;11.47;60.06;99436.47;7004507;28;20316;-85
2022/10/04 06:33:28;;;;;;;7.43;5.30;;;;;;;11.21;60.69;99383.09;7012501;28;20204;-85
2022/10/04 06:37:00;;;;;;;8.07;5.53;;;;;;;11.72;60.72;99435.03;7009186;28;20210;-85
2022/10/04 06:40:46;;;;;;;6.10;4.83;;;;;;;11.78;60.61;99442.34;7006558;28;20351;-85
2022/10/04 06:44:27;;;;;;;5.57;5.00;;;;;;;12.32;59.73;99433.31;7000103;28;20228;-85
2022/10/04 06:48:06;;;;;;;8.33;7.53;;;;;;;12.20;59.12;99404.34;7005226;28;20228;-87
2022/10/04 06:51:40;;;;;;;10.50;9.37;;;;;;;12.20;58.55;99380.00;7009426;28;20288;-83
2022/10/04 06:55:17;;;;;;;7.57;5.57;;;;;;;12.73;57.11;99408.91;7007012;28;20203;-84
2022/10/04 06:58:52;;;;;;;8.60;6.33;;;;;;;12.76;57.35;99416.63;6983887;28;20232;-86
2022/10/04 07:02:17;;;;;;;6.53;5.47;;;;;;;13.02;57.38;99431.09;7004367;28;20197;-86
2022/10/04 07:05:43;;;;;;;9.27;6.10;;;;;;;12.33;58.93;99426.06;6987609;28;20559;-86
2022/10/04 07:09:15;;;;;;;6.27;5.67;;;;;;;12.70;59.31;99447.22;7002890;28;20221;-84
2022/10/04 07:12:40;;;;;;;8.50;5.97;;;;;;;12.81;59.49;99443.94;7001454;28;20675;-84
2022/10/04 07:16:05;;;;;;;8.00;5.83;;;;;;;12.97;59.56;99444.41;7000493;28;20628;-84
2022/10/04 07:19:31;;;;;;;6.40;5.73;;;;;;;12.72;60.26;99455.94;7002473;28;20245;-84
2022/10/04 07:22:56;;;;;;;6.80;5.70;;;;;;;13.05;60.29;99459.63;7014137;28;20668;-84
2022/10/04 07:26:25;;;;;;;8.93;8.20;;;;;;;13.26;59.36;99419.66;7003633;28;20205;-84
2022/10/04 07:29:53;;;;;;;9.93;6.90;;;;;;;13.70;58.38;99451.56;6973786;28;20310;-84
2022/10/04 07:33:18;;;;;;;7.57;6.00;;;;;;;13.79;57.80;99453.84;6992642;28;20257;-84
2022/10/04 07:36:44;;;;;;;7.27;5.03;;;;;;;13.95;57.07;99458.84;7002183;28;20646;-84
2022/10/04 07:40:09;;;;;;;7.90;5.27;;;;;;;13.96;57.24;99465.94;7001819;28;20233;-84
2022/10/04 07:43:34;;;;;;;7.73;5.90;;;;;;;14.02;56.84;99461.53;6997539;28;20289;-84
2022/10/04 07:46:59;;;;;;;8.33;5.57;;;;;;;13.78;57.77;99471.16;6999511;28;20201;-84
2022/10/04 07:50:24;;;;;;;11.43;5.83;;;;;;;13.65;58.73;99459.47;7001802;28;20313;-83
2022/10/04 07:53:50;;;;;;;11.33;6.27;;;;;;;13.59;59.78;99482.00;6997888;28;20285;-84
2022/10/04 07:57:18;;;;;;;9.43;5.73;;;;;;;14.17;59.16;99473.00;6984284;28;20318;-83
2022/10/04 08:00:48;;;;;;;7.07;6.00;;;;;;;14.70;57.76;99463.66;6993447;28;20653;-84
2022/10/04 08:04:28;;;;;;;9.13;4.90;;;;;;;14.92;56.99;99455.00;6995541;28;20209;-81
2022/10/04 08:08:02;;;;;;;6.70;4.63;;;;;;;15.43;55.20;99461.19;6993102;28;20217;-84
2022/10/04 08:11:32;;;;;;;6.70;5.13;;;;;;;15.27;55.81;99464.38;6995436;28;20209;-80
2022/10/04 08:14:56;;;;;;;7.90;5.60;;;;;;;15.50;55.70;99461.13;7004028;28;20217;-80
2022/10/04 08:18:29;;;;;;;8.17;5.87;;;;;;;15.05;57.69;99445.94;7004973;28;20281;-81
2022/10/04 08:22:00;;;;;;;7.83;6.33;;;;;;;15.28;58.63;99441.59;6987604;28;20273;-80
2022/10/04 08:25:24;;;;;;;8.90;6.23;;;;;;;15.39;58.08;99448.28;7007041;28;20202;-79
2022/10/04 08:32:37;;;;;;;8.20;5.17;;;;;;;15.71;56.79;99430.84;7007495;28;20209;-79
2022/10/04 08:36:07;;;;;;;7.83;5.00;;;;;;;15.75;56.58;99413.84;7008887;28;20249;-79
2022/10/04 08:39:41;;;;;;;8.20;4.90;;;;;;;15.61;56.53;99317.19;7005742;28;20245;-79
2022/10/04 08:43:24;;;;;;;9.87;4.70;;;;;;;16.55;55.53;99434.59;7007300;28;20250;-79
2022/10/04 08:47:14;;;;;;;11.20;4.40;;;;;;;16.43;55.60;99429.09;6989061;28;20745;-79
2022/10/04 08:51:08;;;;;;;8.50;4.50;;;;;;;16.75;55.86;99427.84;6990131;28;20792;-79
2022/10/04 08:54:50;;;;;;;6.90;5.30;;;;;;;17.61;53.98;99415.47;6987814;28;20269;-80
2022/10/04 08:58:46;;;;;;;7.33;5.17;;;;;;;18.24;52.69;99434.69;7011159;28;20235;-80
2022/10/04 09:02:40;;;;;;;5.80;4.33;;;;;;;18.86;51.21;99439.34;7014604;28;20550;-81
2022/10/04 09:06:30;;;;;;;6.70;3.80;;;;;;;18.93;50.02;99445.50;7005737;28;20695;-81
2022/10/04 09:10:05;;;;;;;7.30;3.17;;;;;;;18.74;48.45;99433.91;7003833;28;20232;-81
2022/10/04 09:13:41;;;;;;;7.20;3.23;;;;;;;19.44;48.27;99434.47;7004957;28;20278;-81
2022/10/04 09:17:16;;;;;;;6.77;3.70;;;;;;;19.70;48.06;99442.84;6999165;28;20549;-80
2022/10/04 09:20:51;;;;;;;3.93;3.33;;;;;;;20.12;46.35;99435.09;7003763;28;20316;-79
2022/10/04 09:24:41;;;;;;;5.07;4.57;;;;;;;20.65;45.43;99416.09;7004352;28;20336;-79
2022/10/04 09:28:28;;;;;;;7.30;5.70;;;;;;;19.96;46.49;99419.47;7004146;28;20240;-79
2022/10/04 09:32:25;;;;;;;6.87;3.50;;;;;;;20.18;45.71;99412.19;7004322;28;20280;-79
2022/10/04 09:36:00;;;;;;;7.20;3.57;;;;;;;20.93;44.75;99410.47;7003867;28;20209;-80
2022/10/04 09:39:36;;;;;;;7.17;3.20;;;;;;;20.81;44.44;99396.84;7004716;28;20706;-80
2022/10/04 09:43:08;;;;;;;6.40;3.40;;;;;;;20.49;44.31;99389.59;7003833;28;20217;-79
2022/10/04 09:46:43;;;;;;;6.73;3.00;;;;;;;21.19;43.89;99389.34;6999431;28;20702;-80
2022/10/04 09:50:41;;;;;;;6.50;3.70;;;;;;;21.45;42.90;99388.50;6991459;28;20564;-81
2022/10/04 09:54:26;;;;;;;5.60;2.90;;;;;;;21.93;41.12;99388.38;6977346;28;20241;-80
2022/10/04 09:57:57;;;;;;;3.43;2.33;;;;;;;22.14;40.93;99384.66;6976201;28;20237;-80
2022/10/04 10:01:27;;;;;;;3.50;2.30;;;;;;;22.06;39.90;99393.41;6976559;28;20797;-80
2022/10/04 10:04:52;;;;;;;3.80;2.70;;;;;;;21.06;43.45;99405.41;6977394;28;20225;-81
2022/10/04 10:08:19;;;;;;;5.67;3.00;;;;;;;21.01;43.05;99385.31;6980867;28;20305;-81
2022/10/04 10:15:31;;;;;;;2.97;2.40;;;;;;;22.28;40.33;99383.09;7005495;28;20639;-81
2022/10/04 10:19:05;;;;;;;5.50;2.60;;;;;;;22.65;39.91;99391.31;7004251;28;20259;-82
2022/10/04 10:22:57;;;;;;;8.13;4.30;;;;;;;22.75;40.01;99380.31;7005032;28;20197;-81
2022/10/04 10:26:31;;;;;;;6.23;3.60;;;;;;;23.18;39.00;99383.50;6998280;28;20258;-81
2022/10/04 10:30:09;;;;;;;4.60;2.90;;;;;;;22.65;39.39;99383.06;7002901;28;20282;-80
2022/10/04 10:33:41;;;;;;;3.77;2.40;;;;;;;22.93;39.63;99394.41;7003637;28;20292;-81
2022/10/04 10:37:08;;;;;;;5.13;3.27;;;;;;;22.71;39.35;99384.72;7003831;28;20226;-81
2022/10/04 10:40:58;;;;;;;4.70;2.20;;;;;;;22.93;38.05;99388.91;7006196;28;20240;-80
2022/10/04 10:44:36;;;;;;;3.53;2.50;;;;;;;22.95;39.07;99385.91;7031860;28;20188;-80
2022/10/04 10:48:00;;;;;;;4.07;2.30;;;;;;;23.39;38.48;99387.13;7025798;28;20292;-80
2022/10/04 10:51:42;;;;;;;6.83;2.80;;;;;;;23.13;37.95;99385.41;7004191;28;20293;-80
2022/10/04 10:55:21;;;;;;;5.63;2.90;;;;;;;23.09;38.72;99365.03;7003397;28;20281;-80
2022/10/04 10:59:00;;;;;;;5.57;2.90;;;;;;;23.50;37.06;99386.88;6979180;28;20235;-81
2022/10/04 11:03:04;;;;;;;5.87;2.33;;;;;;;23.48;36.51;99372.53;6975862;28;20723;-80
2022/10/04 11:07:04;;;;;;;5.03;2.10;;;;;;;23.62;35.52;99372.81;6984237;28;20186;-81
2022/10/04 11:10:54;;;;;;;3.87;2.10;;;;;;;23.56;37.07;99372.00;6963566;28;20246;-81
2022/10/04 11:14:47;;;;;;;5.73;2.40;;;;;;;23.55;36.06;99369.50;6990820;28;20227;-80
2022/10/04 11:18:32;;;;;;;2.30;1.80;;;;;;;24.09;35.97;99371.44;7000965;28;20279;-80
2022/10/04 11:22:17;;;;;;;3.13;2.17;;;;;;;24.10;35.81;99369.47;7002092;28;20252;-80
2022/10/04 11:25:50;;;;;;;7.13;2.30;;;;;;;24.30;36.44;99348.22;7002091;28;20191;-79
2022/10/04 11:29:22;;;;;;;7.33;2.50;;;;;;;23.81;36.90;99352.72;6996179;28;20309;-80
2022/10/04 11:33:25;;;;;;;3.37;2.20;;;;;;;24.37;35.20;99336.91;6993490;28;20210;-80
2022/10/04 11:37:00;;;;;;;6.13;2.40;;;;;;;25.23;35.12;99333.41;7000071;28;20263;-80
2022/10/04 11:40:31;;;;;;;2.60;2.17;;;;;;;24.84;34.50;99340.03;6991883;28;20238;-80
2022/10/04 11:44:23;;;;;;;3.13;2.30;;;;;;;24.84;34.34;99329.78;7001667;28;20195;-79
2022/10/04 11:47:56;;;;;;;3.57;2.50;;;;;;;25.04;34.84;99309.53;7001576;28;20252;-79
2022/10/04 11:51:47;;;;;;;4.50;2.27;;;;;;;25.06;34.01;99318.34;7002457;28;20248;-80
2022/10/04 11:55:41;;;;;;;4.00;2.33;;;;;;;24.48;34.88;99305.44;7003116;28;20193;-80
2022/10/04 11:59:17;;;;;;;2.23;1.90;;;;;;;25.20;34.20;99300.84;7003964;28;20282;-79
2022/10/04 12:02:56;;;;;;;2.27;2.10;;;;;;;24.98;34.88;99286.69;7006992;28;20364;-80
2022/10/04 12:06:28;;;;;;;2.47;2.03;;;;;;;25.12;34.74;99293.19;7007233;28;20206;-79
2022/10/04 12:09:59;;;;;;;4.13;2.00;;;;;;;25.25;34.86;99302.81;7001912;28;20304;-80
2022/10/04 12:13:49;;;;;;;4.10;2.40;;;;;;;25.37;34.67;99284.75;6998495;28;20286;-80
2022/10/04 12:17:51;;;;;;;4.10;2.80;;;;;;;24.33;37.54;99297.22;7002582;28;20931;-80
2022/10/04 12:21:39;;;;;;;7.13;2.70;;;;;;;22.61;41.40;99294.78;7002424;28;20569;-79
2022/10/04 12:25:42;;;;;;;3.83;2.40;;;;;;;21.71;43.18;99288.84;7001507;28;20195;-81
2022/10/04 12:29:32;;;;;;;4.07;2.80;;;;;;;21.76;43.12;99296.28;6973932;28;20364;-80
2022/10/04 12:33:03;;;;;;;4.53;2.50;;;;;;;23.06;41.33;99291.31;6985061;28;20343;-80
2022/10/04 12:36:40;;;;;;;3.33;2.40;;;;;;;22.86;40.71;99280.25;7004790;28;20277;-79
2022/10/04 12:40:22;;;;;;;5.00;2.50;;;;;;;22.79;41.48;99258.56;7002519;28;20317;-80
2022/10/04 12:43:54;;;;;;;5.43;2.33;;;;;;;23.43;40.13;99270.69;6986115;28;20316;-80
2022/10/04 12:47:44;;;;;;;4.13;2.53;;;;;;;23.61;40.60;99277.56;7002476;28;20200;-80
2022/10/04 12:51:22;;;;;;;3.27;2.10;;;;;;;23.14;40.15;99266.00;7003520;28;20191;-80
2022/10/04 12:54:46;;;;;;;4.80;2.30;;;;;;;23.40;39.50;99262.16;7004336;28;20302;-80
2022/10/04 12:58:14;;;;;;;7.07;2.50;;;;;;;23.31;40.14;99252.81;7013372;28;20235;-80
2022/10/04 13:01:41;;;;;;;7.33;2.33;;;;;;;23.89;39.36;99274.22;7019955;28;20213;-80
2022/10/04 13:05:08;;;;;;;4.03;2.30;;;;;;;24.97;37.03;99257.44;7014560;28;20726;-80
2022/10/04 13:08:42;;;;;;;3.80;2.00;;;;;;;24.95;36.21;99259.66;7000005;28;20225;-79
2022/10/04 13:12:13;;;;;;;3.03;1.90;;;;;;;25.37;35.47;99232.28;7006085;28;20201;-79
2022/10/04 13:15:38;;;;;;;3.33;2.10;;;;;;;25.58;35.73;99255.84;7006564;28;20361;-80
2022/10/04 13:19:04;;;;;;;3.23;2.57;;;;;;;25.64;34.77;99237.25;7006043;28;20232;-79
2022/10/04 13:22:45;;;;;;;3.57;2.17;;;;;;;25.99;34.22;99256.25;7006846;28;20198;-79
2022/10/04 13:26:28;;;;;;;2.03;1.80;;;;;;;25.77;33.67;99247.66;6984788;28;20257;-79
2022/10/04 13:29:54;;;;;;;4.57;1.83;;;;;;;25.25;34.14;99259.44;6978207;28;20221;-79
2022/10/04 13:33:27;;;;;;;2.73;2.00;;;;;;;25.09;36.36;99265.34;6979049;28;20200;-79
2022/10/04 13:37:02;;;;;;;4.87;2.07;;;;;;;25.05;34.62;99267.88;6978776;28;20224;-79
2022/10/04 13:40:33;;;;;;;3.10;2.30;;;;;;;25.55;33.72;99274.94;6977928;28;20237;-79
2022/10/04 13:44:14;;;;;;;4.67;2.00;;;;;;;25.11;33.15;99241.03;6978302;28;20773;-79
2022/10/04 13:47:53;;;;;;;3.00;1.90;;;;;;;25.05;33.69;99258.75;6978069;28;20233;-80
2022/10/04 13:56:35;;;;;;;4.53;2.07;;;;;;;25.25;33.12;99256.69;6978200;28;20653;-80
2022/10/04 13:59:28;;;;;;;4.57;2.50;;;;;;;24.14;36.61;99238.31;6891449;28;20235;-79
2022/10/04 14:03:13;;;;;;;3.50;2.30;;;;;;;24.37;36.74;99243.97;6976960;28;20215;-79
2022/10/04 14:06:58;;;;;;;3.87;1.87;;;;;;;23.61;38.39;99266.53;6976968;28;20304;-81
2022/10/04 14:10:34;;;;;;;2.83;2.07;;;;;;;23.69;37.30;99266.81;6977087;28;20229;-80
2022/10/04 14:14:16;;;;;;;4.33;2.00;;;;;;;23.42;37.40;99268.22;6978146;28;20303;-78
2022/10/04 14:17:58;;;;;;;4.77;2.17;;;;;;;23.86;37.94;99263.72;6977044;28;20197;-79
2022/10/04 14:22:11;;;;;;;3.33;1.80;;;;;;;23.83;36.94;99256.03;6997661;28;20678;-80
2022/10/04 14:26:01;;;;;;;3.17;1.80;;;;;;;23.63;37.43;99242.31;7005224;28;20298;-79
2022/10/04 14:29:41;;;;;;;2.70;2.10;;;;;;;23.71;37.59;99248.06;6981122;28;20248;-79
2022/10/04 14:33:20;;;;;;;2.40;1.83;;;;;;;23.54;37.25;99217.25;7006607;28;20297;-79
2022/10/04 14:36:57;;;;;;;2.10;1.90;;;;;;;23.80;37.15;99240.91;7006901;28;20203;-80
2022/10/04 14:40:32;;;;;;;4.03;1.70;;;;;;;24.12;36.08;99235.84;7005169;28;20234;-80
2022/10/04 14:44:19;;;;;;;3.53;2.07;;;;;;;23.73;36.32;99232.06;7006049;28;20256;-80
2022/10/04 14:48:12;;;;;;;2.93;1.87;;;;;;;23.91;36.25;99236.19;7005081;28;20282;-81
2022/10/04 14:51:48;;;;;;;4.17;2.07;;;;;;;24.08;36.08;99231.19;7004478;28;20281;-82
2022/10/04 14:55:28;;;;;;;2.37;1.80;;;;;;;23.73;35.97;99223.00;7006424;28;20213;-83
2022/10/04 14:58:57;;;;;;;2.53;1.90;;;;;;;23.66;37.18;99239.81;6988787;28;20676;-80
2022/10/04 15:02:48;;;;;;;2.17;1.80;;;;;;;23.38;36.31;99198.31;7005271;28;20286;-80
2022/10/04 15:06:15;;;;;;;5.00;1.73;;;;;;;22.92;37.21;99236.00;7006646;28;20687;-83
2022/10/04 15:09:52;;;;;;;1.97;1.80;;;;;;;23.38;37.21;99231.34;7004471;28;20236;-80
2022/10/04 15:13:22;;;;;;;4.60;1.83;;;;;;;23.41;36.95;99236.28;7006383;28;20200;-80
2022/10/04 15:16:49;;;;;;;4.00;1.90;;;;;;;22.94;38.26;99227.47;7006352;28;20276;-80
2022/10/04 15:20:19;;;;;;;3.37;1.90;;;;;;;23.33;36.81;99218.41;7004717;28;20255;-80
2022/10/04 15:23:44;;;;;;;2.63;1.80;;;;;;;23.07;37.68;99226.94;7005729;28;20225;-80
2022/10/04 15:27:38;;;;;;;2.50;1.90;;;;;;;22.60;37.43;99207.09;7005886;28;20214;-80
2022/10/04 15:31:01;;;;;;;2.67;2.00;;;;;;;23.74;36.74;99219.16;6976440;28;20294;-79
2022/10/04 15:34:32;;;;;;;4.23;1.90;;;;;;;23.36;36.63;99226.09;7002943;28;20213;-79
2022/10/04 15:37:58;;;;;;;2.57;2.23;;;;;;;22.78;37.11;99179.06;7002511;28;20223;-78
2022/10/04 15:41:26;;;;;;;2.07;1.73;;;;;;;22.47;38.85;99216.69;7003822;28;20348;-80
2022/10/04 15:45:16;;;;;;;5.70;2.00;;;;;;;23.58;37.55;99204.59;7003136;28;20202;-81
2022/10/04 15:48:52;;;;;;;3.33;2.27;;;;;;;23.51;37.53;99203.22;6973920;28;20237;-80
2022/10/04 15:52:51;;;;;;;2.60;2.00;;;;;;;23.44;37.73;99210.97;6977149;28;20285;-80
2022/10/04 15:56:26;;;;;;;2.87;2.10;;;;;;;23.15;38.47;99194.19;6976292;28;20729;-81
2022/10/04 15:59:54;;;;;;;2.37;1.90;;;;;;;23.19;38.32;99214.56;6976520;28;20288;-81
2022/10/04 16:03:26;;;;;;;2.93;1.90;;;;;;;23.22;38.75;99211.28;6976882;28;20249;-80
2022/10/04 16:06:52;;;;;;;4.87;2.00;;;;;;;23.06;39.39;99211.53;6976756;28;20193;-80
2022/10/04 16:10:19;;;;;;;4.37;2.37;;;;;;;23.34;38.50;99210.97;6976742;28;20220;-81
2022/10/04 16:13:55;;;;;;;3.00;1.80;;;;;;;23.52;38.34;99207.63;6996727;28;20218;-81
2022/10/04 16:17:32;;;;;;;2.30;1.97;;;;;;;23.58;39.97;99204.59;7004418;28;20713;-79
2022/10/04 16:21:05;;;;;;;3.70;2.47;;;;;;;23.31;41.42;99215.09;7004815;28;20683;-80
2022/10/04 16:24:44;;;;;;;3.63;2.70;;;;;;;22.72;43.19;99204.91;7004382;28;20194;-81
2022/10/04 16:28:12;;;;;;;5.27;2.43;;;;;;;21.76;45.59;99190.06;7004989;28;20632;-80
2022/10/04 16:31:51;;;;;;;4.77;2.90;;;;;;;20.19;50.25;99200.25;7008131;28;20314;-80
2022/10/04 16:35:23;;;;;;;5.03;2.63;;;;;;;20.15;51.46;99199.94;7010972;28;20201;-80
2022/10/04 16:42:29;;;;;;;4.00;3.60;;;;;;;20.91;49.72;99209.75;7014887;28;20194;-80
2022/10/04 16:46:08;;;;;;;3.87;2.97;;;;;;;20.52;50.24;99200.06;7011143;28;20205;-80
2022/10/04 16:49:37;;;;;;;5.00;3.17;;;;;;;20.55;50.84;99210.47;7010006;28;20239;-80
2022/10/04 16:53:21;;;;;;;7.60;3.30;;;;;;;20.26;51.67;99209.09;7011569;28;20198;-80
2022/10/04 16:57:11;;;;;;;3.77;3.03;;;;;;;20.14;51.59;99201.03;6984574;28;20210;-80
2022/10/04 17:00:35;;;;;;;9.13;3.40;;;;;;;19.81;52.72;99205.78;6986618;28;20272;-80
2022/10/04 17:04:04;;;;;;;4.90;3.27;;;;;;;19.66;53.79;99222.00;7010423;28;20636;-82